IK5QLO-3 Weather Reports


Display with metric or nautical units.
time (UTC)temp
F
wind
direction
speed
MPH
gust
MPH
rain 1hr
in
rain 24hr
in
rain mn
in
humidity
%
barometer
mb
20260906104138 86 0.0 0.0 0.00 0.00 0.00 50
20260906101137 86 0.0 0.0 0.00 0.00 0.00 50
20260906094136 84 0.0 0.0 0.00 0.00 0.00 53
20260906091135 82 0.0 0.0 0.00 0.00 0.00 55
20260906084134 80 0.0 0.0 0.00 0.00 0.00 57
20260906081133 80 0.0 0.0 0.00 0.00 0.00 58
20260906074132 77 0.0 0.0 0.00 0.00 0.00 64
20260906071130 77 0.0 0.0 0.00 0.00 0.00 68
20260906064129 75 0.0 0.0 0.00 0.00 0.00 69
20260906061128 77 0.0 0.0 0.00 0.00 0.00 60
20260906054128 77 0.0 0.0 0.00 0.00 0.00 61
20260906051127 75 0.0 0.0 0.00 0.00 0.00 63
20260906044126 77 0.0 0.0 0.00 0.00 0.00 62
20260906041125 78 0.0 0.0 0.00 0.00 0.00 59
20260906034124 77 0.0 0.0 0.00 0.00 0.00 63
20260906031123 78 0.0 0.0 0.00 0.00 0.00 60
20260906024122 77 0.0 0.0 0.00 0.00 0.00 63
20260906021121 78 0.0 0.0 0.00 0.00 0.00 61
20260906014119 77 0.0 0.0 0.00 0.00 0.00 65
20260906011117 77 0.0 0.0 0.00 0.00 0.00 64
20260906004117 80 0.0 0.0 0.00 0.00 0.00 59
20260906001116 80 0.0 0.0 0.00 0.00 0.00 60
20260905234115 77 0.0 0.0 0.00 0.00 0.00 64
20260905231114 82 0.0 0.0 0.00 0.00 0.00 58
20260905224113 82 0.0 0.0 0.00 0.00 0.00 57
20260905221112 80 0.0 0.0 0.00 0.00 0.00 59
20260905214111 84 0.0 0.0 0.00 0.00 0.00 56
20260905211110 86 0.0 0.0 0.00 0.00 0.00 54
20260905204109 84 0.0 0.0 0.00 0.00 0.00 56
20260905201108 84 0.0 0.0 0.00 0.00 0.00 55
20260905194107 84 0.0 0.0 0.00 0.00 0.00 54
20260905191106 84 0.0 0.0 0.00 0.00 0.00 54
20260905184105 86 0.0 0.0 0.00 0.00 0.00 53
20260905181104 84 0.0 0.0 0.00 0.00 0.00 54
20260905174103 84 0.0 0.0 0.00 0.00 0.00 55
20260905171102 84 0.0 0.0 0.00 0.00 0.00 52
20260905164101 84 0.0 0.0 0.00 0.00 0.00 52
20260905161101 86 0.0 0.0 0.00 0.00 0.00 54
20260905154100 86 0.0 0.0 0.00 0.00 0.00 54
20260905151058 89 0.0 0.0 0.00 0.00 0.00 52
20260905144057 91 0.0 0.0 0.00 0.00 0.00 48
20260905141056 89 0.0 0.0 0.00 0.00 0.00 50
20260905134057 89 0.0 0.0 0.00 0.00 0.00 49
20260905131054 87 0.0 0.0 0.00 0.00 0.00 50
20260905124053 87 0.0 0.0 0.00 0.00 0.00 50
20260905121052 89 0.0 0.0 0.00 0.00 0.00 49
20260905114051 87 0.0 0.0 0.00 0.00 0.00 49